createdAt,value
2016-10-19T00:00:30.729Z,0
2016-10-19T00:01:30.784Z,0
2016-10-19T00:02:31.104Z,0
2016-10-19T00:03:31.090Z,0
2016-10-19T00:04:31.119Z,0
2016-10-19T00:05:31.399Z,0
2016-10-19T00:06:30.770Z,0
2016-10-19T00:07:30.774Z,0
2016-10-19T00:08:30.786Z,0
2016-10-19T00:09:31.788Z,0
2016-10-19T00:10:31.107Z,0
2016-10-19T00:11:31.162Z,0
2016-10-19T00:12:31.684Z,0
2016-10-19T00:13:31.181Z,0
2016-10-19T00:14:30.820Z,0
2016-10-19T00:15:30.830Z,0
2016-10-19T00:16:31.464Z,0
2016-10-19T00:17:31.218Z,0
2016-10-19T00:18:32.667Z,0
2016-10-19T00:19:30.864Z,0
2016-10-19T00:20:31.614Z,0
2016-10-19T00:21:31.498Z,0
2016-10-19T00:22:30.910Z,0
2016-10-19T00:23:31.862Z,0
2016-10-19T00:24:30.890Z,0
2016-10-19T00:25:30.638Z,0
2016-10-19T00:26:31.219Z,0
2016-10-19T00:27:31.227Z,0
2016-10-19T00:28:31.237Z,0
2016-10-19T00:29:32.465Z,0
2016-10-19T00:30:30.932Z,0
2016-10-19T00:31:31.039Z,0
2016-10-19T00:32:31.624Z,0
2016-10-19T00:33:32.680Z,0
2016-10-19T00:34:31.411Z,0
2016-10-19T00:35:31.279Z,0
2016-10-19T00:36:31.286Z,0
2016-10-19T00:37:31.608Z,0
2016-10-19T00:38:31.350Z,0
2016-10-19T00:39:31.044Z,0
2016-10-19T00:40:31.804Z,0
2016-10-19T00:41:31.325Z,0
2016-10-19T00:42:31.414Z,0
2016-10-19T00:43:31.020Z,0
2016-10-19T00:44:32.815Z,0
2016-10-19T00:45:30.723Z,0
2016-10-19T00:46:31.357Z,0
2016-10-19T00:47:31.056Z,0
2016-10-19T00:48:31.723Z,0
2016-10-19T00:49:31.065Z,0
2016-10-19T00:50:30.840Z,0
2016-10-19T00:51:31.703Z,0
2016-10-19T00:52:31.759Z,0
2016-10-19T00:53:31.722Z,0
2016-10-19T00:54:30.832Z,0
2016-10-19T00:55:32.716Z,0
2016-10-19T00:56:31.142Z,0
2016-10-19T00:57:31.430Z,0
2016-10-19T00:58:31.127Z,0
2016-10-19T00:59:31.443Z,0
2016-10-19T01:00:31.135Z,0
2016-10-19T01:01:31.826Z,0
2016-10-19T01:02:31.201Z,0
2016-10-19T01:03:31.158Z,0
2016-10-19T01:04:31.874Z,0
2016-10-19T01:05:31.222Z,0
2016-10-19T01:06:32.473Z,0
2016-10-19T01:07:31.237Z,0
2016-10-19T01:08:30.931Z,0
2016-10-19T01:09:31.447Z,0
2016-10-19T01:10:31.570Z,0
2016-10-19T01:11:31.525Z,0
2016-10-19T01:12:31.221Z,0
2016-10-19T01:13:31.541Z,0
2016-10-19T01:14:31.545Z,0
2016-10-19T01:15:32.571Z,0
2016-10-19T01:16:31.249Z,0
2016-10-19T01:17:31.992Z,0
2016-10-19T01:18:31.656Z,0
2016-10-19T01:19:31.893Z,0
2016-10-19T01:20:31.587Z,0
2016-10-19T01:21:31.590Z,0
2016-10-19T01:22:31.653Z,0
2016-10-19T01:23:31.651Z,0
2016-10-19T01:24:31.664Z,0
2016-10-19T01:25:31.313Z,0
2016-10-19T01:26:32.103Z,0
2016-10-19T01:27:31.365Z,0
2016-10-19T01:28:31.952Z,0
2016-10-19T01:29:31.651Z,0
2016-10-19T01:30:33.281Z,0
2016-10-19T01:31:31.349Z,0
2016-10-19T01:32:31.357Z,0
2016-10-19T01:33:31.524Z,0
2016-10-19T01:34:31.420Z,0
2016-10-19T01:35:31.427Z,0
2016-10-19T01:36:31.697Z,0
2016-10-19T01:37:31.393Z,0
2016-10-19T01:38:31.453Z,0
2016-10-19T01:39:31.607Z,0
2016-10-19T01:40:31.824Z,0
2016-10-19T01:41:33.385Z,0
2016-10-19T01:42:31.793Z,0
2016-10-19T01:43:31.499Z,0
2016-10-19T01:44:31.757Z,0
2016-10-19T01:45:31.129Z,0
2016-10-19T01:46:31.142Z,0
2016-10-19T01:47:31.448Z,0
2016-10-19T01:48:31.476Z,0
2016-10-19T01:49:32.107Z,0
2016-10-19T01:50:32.146Z,0
2016-10-19T01:51:31.777Z,0
2016-10-19T01:52:33.424Z,0
2016-10-19T01:53:31.504Z,0
2016-10-19T01:54:31.510Z,0
2016-10-19T01:55:31.562Z,0
2016-10-19T01:56:31.838Z,0
2016-10-19T01:57:32.155Z,0
2016-10-19T01:58:31.224Z,0
2016-10-19T01:59:31.854Z,0
2016-10-19T02:00:31.547Z,0
2016-10-19T02:01:32.230Z,0
2016-10-19T02:02:31.872Z,0
2016-10-19T02:03:32.916Z,0
2016-10-19T02:04:31.892Z,0
2016-10-19T02:05:32.256Z,0
2016-10-19T02:06:31.904Z,0
2016-10-19T02:07:31.649Z,0
2016-10-19T02:08:31.967Z,0
2016-10-19T02:09:32.536Z,0
2016-10-19T02:10:31.984Z,0
2016-10-19T02:11:31.625Z,0
2016-10-19T02:12:31.636Z,0
2016-10-19T02:13:32.563Z,0
2016-10-19T02:14:32.984Z,0
2016-10-19T02:15:31.971Z,0
2016-10-19T02:16:31.655Z,0
2016-10-19T02:17:32.027Z,0
2016-10-19T02:18:32.304Z,0
2016-10-19T02:19:31.677Z,0
2016-10-19T02:20:32.000Z,0
2016-10-19T02:21:31.434Z,0
2016-10-19T02:22:31.701Z,0
2016-10-19T02:23:32.336Z,0
2016-10-19T02:24:32.079Z,0
2016-10-19T02:25:33.089Z,0
2016-10-19T02:26:32.043Z,0
2016-10-19T02:27:32.154Z,0
2016-10-19T02:28:32.085Z,0
2016-10-19T02:29:32.474Z,0
2016-10-19T02:30:31.761Z,0
2016-10-19T02:31:31.448Z,0
2016-10-19T02:32:32.444Z,0
2016-10-19T02:33:31.779Z,0
2016-10-19T02:34:31.470Z,0
2016-10-19T02:35:32.159Z,0
2016-10-19T02:36:33.064Z,0
2016-10-19T02:37:31.491Z,0
2016-10-19T02:38:32.123Z,0
2016-10-19T02:39:31.873Z,0
2016-10-19T02:40:31.926Z,0
2016-10-19T02:41:31.835Z,0
2016-10-19T02:42:32.515Z,0
2016-10-19T02:43:32.163Z,0
2016-10-19T02:44:31.539Z,0
2016-10-19T02:45:32.225Z,0
2016-10-19T02:46:32.182Z,0
2016-10-19T02:47:32.775Z,0
2016-10-19T02:48:32.227Z,0
2016-10-19T02:49:34.132Z,0
2016-10-19T02:50:31.892Z,0
2016-10-19T02:51:33.059Z,0
2016-10-19T02:52:31.905Z,0
2016-10-19T02:53:32.268Z,0
2016-10-19T02:54:32.547Z,0
2016-10-19T02:55:32.248Z,0
2016-10-19T02:56:31.985Z,0
2016-10-19T02:57:31.947Z,0
2016-10-19T02:58:32.459Z,0
2016-10-19T02:59:32.325Z,0
2016-10-19T03:00:32.277Z,0
2016-10-19T03:01:31.969Z,0
2016-10-19T03:02:32.995Z,0
2016-10-19T03:03:32.296Z,0
2016-10-19T03:04:31.769Z,0
2016-10-19T03:05:32.313Z,0
2016-10-19T03:06:32.007Z,0
2016-10-19T03:07:32.015Z,0
2016-10-19T03:08:31.708Z,0
2016-10-19T03:09:32.075Z,0
2016-10-19T03:10:32.709Z,0
2016-10-19T03:11:33.627Z,0
2016-10-19T03:12:32.759Z,0
2016-10-19T03:13:32.770Z,0
2016-10-19T03:14:31.753Z,0
2016-10-19T03:15:32.433Z,0
2016-10-19T03:16:32.394Z,0
2016-10-19T03:17:31.787Z,0
2016-10-19T03:18:32.400Z,0
2016-10-19T03:19:31.830Z,0
2016-10-19T03:20:32.158Z,0
2016-10-19T03:21:32.422Z,0
2016-10-19T03:22:33.790Z,0
2016-10-19T03:23:32.177Z,0
2016-10-19T03:24:32.756Z,0
2016-10-19T03:25:32.518Z,0
2016-10-19T03:26:32.779Z,0
2016-10-19T03:27:32.572Z,0
2016-10-19T03:28:32.160Z,0
2016-10-19T03:29:32.200Z,0
2016-10-19T03:30:32.275Z,0
2016-10-19T03:31:32.284Z,0
2016-10-19T03:32:32.288Z,0
2016-10-19T03:33:33.822Z,0
2016-10-19T03:34:32.519Z,0
2016-10-19T03:35:32.767Z,0
2016-10-19T03:36:32.527Z,0
2016-10-19T03:37:32.588Z,0
2016-10-19T03:38:32.853Z,0
2016-10-19T03:39:32.238Z,0
2016-10-19T03:40:32.556Z,0
2016-10-19T03:41:31.937Z,0
2016-10-19T03:42:32.572Z,0
2016-10-19T03:43:32.316Z,0
2016-10-19T03:44:33.496Z,0
2016-10-19T03:45:32.590Z,0
2016-10-19T03:46:32.802Z,0
2016-10-19T03:47:31.983Z,0
2016-10-19T03:48:33.814Z,0
2016-10-19T03:49:32.936Z,0
2016-10-19T03:50:32.673Z,0
2016-10-19T03:51:32.631Z,0
2016-10-19T03:52:32.956Z,0
2016-10-19T03:53:32.654Z,0
2016-10-19T03:54:32.968Z,0
2016-10-19T03:55:33.380Z,0
2016-10-19T03:56:32.353Z,0
2016-10-19T03:57:33.275Z,0
2016-10-19T03:58:32.417Z,0
2016-10-19T03:59:32.688Z,0
2016-10-19T04:00:32.701Z,0
2016-10-19T04:01:32.699Z,0
2016-10-19T04:02:32.444Z,0
2016-10-19T04:03:32.725Z,0
2016-10-19T04:04:32.468Z,0
2016-10-19T04:05:32.730Z,0
2016-10-19T04:06:32.736Z,0
2016-10-19T04:07:32.844Z,0
2016-10-19T04:08:33.140Z,0
2016-10-19T04:09:32.807Z,0
2016-10-19T04:10:32.766Z,0
2016-10-19T04:11:32.454Z,0
2016-10-19T04:12:33.090Z,0
2016-10-19T04:13:33.201Z,0
2016-10-19T04:14:32.482Z,0
2016-10-19T04:15:32.535Z,0
2016-10-19T04:16:32.178Z,0
2016-10-19T04:17:32.506Z,0
2016-10-19T04:18:33.173Z,0
2016-10-19T04:19:33.223Z,0
2016-10-19T04:20:32.517Z,0
2016-10-19T04:21:32.265Z,0
2016-10-19T04:22:33.161Z,0
2016-10-19T04:23:32.538Z,0
2016-10-19T04:24:32.996Z,0
2016-10-19T04:25:32.913Z,0
2016-10-19T04:26:32.559Z,0
2016-10-19T04:27:32.876Z,0
2016-10-19T04:28:32.677Z,0
2016-10-19T04:29:32.890Z,0
2016-10-19T04:30:33.267Z,0
2016-10-19T04:31:32.335Z,0
2016-10-19T04:32:34.331Z,0
2016-10-19T04:33:33.275Z,0
2016-10-19T04:34:33.515Z,0
2016-10-19T04:35:32.980Z,0
2016-10-19T04:36:32.362Z,0
2016-10-19T04:37:32.637Z,0
2016-10-19T04:38:32.678Z,0
2016-10-19T04:39:32.966Z,0
2016-10-19T04:40:32.343Z,0
2016-10-19T04:41:32.662Z,0
2016-10-19T04:42:32.368Z,0
2016-10-19T04:43:34.289Z,0
2016-10-19T04:44:32.994Z,0
2016-10-19T04:45:33.369Z,0
2016-10-19T04:46:33.013Z,0
2016-10-19T04:47:32.743Z,0
2016-10-19T04:48:32.710Z,0
2016-10-19T04:49:32.718Z,0
2016-10-19T04:50:32.470Z,0
2016-10-19T04:51:32.781Z,0
2016-10-19T04:52:32.736Z,0
2016-10-19T04:53:32.752Z,0
2016-10-19T04:54:33.540Z,0
2016-10-19T04:55:33.432Z,0
2016-10-19T04:56:32.817Z,0
2016-10-19T04:57:32.771Z,0
2016-10-19T04:58:33.141Z,0
2016-10-19T04:59:32.836Z,0
2016-10-19T05:00:33.105Z,0
2016-10-19T05:01:32.485Z,0
2016-10-19T05:02:32.858Z,0
2016-10-19T05:03:32.505Z,0
2016-10-19T05:04:33.234Z,0
2016-10-19T05:05:33.869Z,0
2016-10-19T05:06:33.145Z,0
2016-10-19T05:07:33.211Z,0
2016-10-19T05:08:32.851Z,0
2016-10-19T05:09:33.220Z,0
2016-10-19T05:10:32.863Z,0
2016-10-19T05:11:33.503Z,0
2016-10-19T05:12:33.502Z,0
2016-10-19T05:13:33.246Z,0
2016-10-19T05:14:32.941Z,0
2016-10-19T05:15:33.208Z,0
2016-10-19T05:16:33.160Z,0
2016-10-19T05:17:33.569Z,0
2016-10-19T05:18:34.459Z,0
2016-10-19T05:19:32.925Z,0
2016-10-19T05:20:33.631Z,0
2016-10-19T05:21:33.250Z,0
2016-10-19T05:22:33.257Z,0
2016-10-19T05:23:32.953Z,0
2016-10-19T05:24:32.646Z,0
2016-10-19T05:25:33.852Z,0
2016-10-19T05:26:33.286Z,0
2016-10-19T05:27:33.293Z,0
2016-10-19T05:28:33.516Z,0
2016-10-19T05:29:34.875Z,0
2016-10-19T05:30:32.997Z,0
2016-10-19T05:31:33.673Z,0
2016-10-19T05:32:33.015Z,0
2016-10-19T05:33:33.631Z,0
2016-10-19T05:34:33.087Z,0
2016-10-19T05:35:33.347Z,0
2016-10-19T05:36:33.046Z,0
2016-10-19T05:37:33.048Z,0
2016-10-19T05:38:33.376Z,0
2016-10-19T05:39:33.420Z,0
2016-10-19T05:40:34.933Z,0
2016-10-19T05:41:33.703Z,0
2016-10-19T05:42:33.831Z,0
2016-10-19T05:43:32.826Z,0
2016-10-19T05:44:33.092Z,0
2016-10-19T05:45:33.104Z,0
2016-10-19T05:46:33.471Z,0
2016-10-19T05:47:33.780Z,0
2016-10-19T05:48:33.482Z,0
2016-10-19T05:49:33.123Z,0
2016-10-19T05:50:33.185Z,0
2016-10-19T05:51:33.145Z,0
2016-10-19T05:52:32.834Z,4
2016-10-19T05:53:33.747Z,4
2016-10-19T05:54:33.526Z,4
2016-10-19T05:55:33.531Z,4
2016-10-19T05:56:33.484Z,4
2016-10-19T05:57:33.549Z,4
2016-10-19T05:58:33.502Z,0
2016-10-19T05:59:33.597Z,4
2016-10-19T06:00:33.553Z,4
2016-10-19T06:01:33.208Z,4
2016-10-19T06:02:34.683Z,0
2016-10-19T06:03:32.954Z,0
2016-10-19T06:04:33.895Z,4
2016-10-19T06:05:33.865Z,4
2016-10-19T06:06:33.551Z,4
2016-10-19T06:07:33.561Z,8
2016-10-19T06:08:32.944Z,8
2016-10-19T06:09:33.577Z,8
2016-10-19T06:10:33.945Z,8
2016-10-19T06:11:33.906Z,8
2016-10-19T06:12:33.917Z,4
2016-10-19T06:13:34.391Z,4
2016-10-19T06:14:33.296Z,4
2016-10-19T06:15:33.666Z,8
2016-10-19T06:16:33.313Z,4
2016-10-19T06:17:33.322Z,4
2016-10-19T06:18:33.324Z,8
2016-10-19T06:19:33.643Z,8
2016-10-19T06:20:33.336Z,4
2016-10-19T06:21:33.067Z,8
2016-10-19T06:22:34.007Z,8
2016-10-19T06:23:33.405Z,8
2016-10-19T06:24:34.531Z,8
2016-10-19T06:25:33.461Z,12
2016-10-19T06:26:33.738Z,12
2016-10-19T06:27:33.440Z,12
2016-10-19T06:28:34.712Z,16
2016-10-19T06:29:33.718Z,16
2016-10-19T06:30:33.717Z,16
2016-10-19T06:31:33.418Z,20
2016-10-19T06:32:33.101Z,20
2016-10-19T06:33:34.055Z,24
2016-10-19T06:34:33.176Z,24
2016-10-19T06:35:33.802Z,24
2016-10-19T06:36:33.766Z,28
2016-10-19T06:37:34.130Z,32
2016-10-19T06:38:33.462Z,32
2016-10-19T06:39:34.591Z,32
2016-10-19T06:40:33.570Z,32
2016-10-19T06:41:33.478Z,24
2016-10-19T06:42:33.937Z,24
2016-10-19T06:43:48.717Z,28
2016-10-19T06:44:34.127Z,24
2016-10-19T06:45:33.854Z,24
2016-10-19T06:46:33.824Z,28
2016-10-19T06:47:33.520Z,28
2016-10-19T06:48:33.876Z,28
2016-10-19T06:49:33.851Z,28
2016-10-19T06:50:34.741Z,36
2016-10-19T06:51:33.545Z,36
2016-10-19T06:52:33.559Z,36
2016-10-19T06:53:33.644Z,40
2016-10-19T06:54:33.879Z,36
2016-10-19T06:55:33.580Z,32
2016-10-19T06:56:33.580Z,32
2016-10-19T06:57:33.900Z,32
2016-10-19T06:58:33.905Z,32
2016-10-19T06:59:34.907Z,40
2016-10-19T07:00:33.973Z,52
2016-10-19T07:01:34.532Z,56
2016-10-19T07:02:33.935Z,52
2016-10-19T07:03:33.372Z,52
2016-10-19T07:04:33.953Z,48
2016-10-19T07:05:33.693Z,48
2016-10-19T07:06:34.311Z,56
2016-10-19T07:07:34.125Z,56
2016-10-19T07:08:33.972Z,52
2016-10-19T07:09:33.983Z,48
2016-10-19T07:10:34.634Z,48
2016-10-19T07:11:34.368Z,48
2016-10-19T07:12:34.656Z,40
2016-10-19T07:13:48.314Z,36
2016-10-19T07:14:35.989Z,84
2016-10-19T07:15:33.712Z,104
2016-10-19T07:16:34.083Z,112
2016-10-19T07:17:34.184Z,108
2016-10-19T07:18:33.467Z,112
2016-10-19T07:19:34.235Z,108
2016-10-19T07:20:33.532Z,112
2016-10-19T07:21:34.062Z,108
2016-10-19T07:22:34.070Z,108
2016-10-19T07:23:34.531Z,104
2016-10-19T07:24:34.445Z,104
2016-10-19T07:25:35.850Z,108
2016-10-19T07:26:34.096Z,108
2016-10-19T07:27:33.818Z,108
2016-10-19T07:28:34.435Z,112
2016-10-19T07:29:33.805Z,112
2016-10-19T07:30:34.110Z,116
2016-10-19T07:31:34.496Z,124
2016-10-19T07:32:33.883Z,124
2016-10-19T07:33:33.830Z,120
2016-10-19T07:34:34.511Z,120
2016-10-19T07:35:34.465Z,116
2016-10-19T07:36:33.904Z,112
2016-10-19T07:37:34.183Z,112
2016-10-19T07:38:33.913Z,112
2016-10-19T07:39:34.233Z,108
2016-10-19T07:40:33.888Z,112
2016-10-19T07:41:34.199Z,104
2016-10-19T07:42:33.892Z,108
2016-10-19T07:43:34.263Z,108
2016-10-19T07:44:33.941Z,108
2016-10-19T07:45:34.473Z,108
2016-10-19T07:46:34.545Z,108
2016-10-19T07:47:35.930Z,112
2016-10-19T07:48:34.247Z,116
2016-10-19T07:49:34.838Z,124
2016-10-19T07:50:33.999Z,120
2016-10-19T07:51:33.948Z,128
2016-10-19T07:52:33.958Z,152
2016-10-19T07:53:34.739Z,156
2016-10-19T07:54:34.023Z,156
2016-10-19T07:55:34.294Z,188
2016-10-19T07:56:34.090Z,176
2016-10-19T07:57:34.389Z,164
2016-10-19T07:58:34.002Z,144
2016-10-19T07:59:34.314Z,152
2016-10-19T08:00:34.927Z,136
2016-10-19T08:01:33.706Z,128
2016-10-19T08:02:34.903Z,136
2016-10-19T08:03:34.707Z,148
2016-10-19T08:04:34.403Z,172
2016-10-19T08:05:34.409Z,180
2016-10-19T08:06:34.054Z,200
2016-10-19T08:07:33.747Z,216
2016-10-19T08:08:34.798Z,256
2016-10-19T08:09:35.731Z,304
2016-10-19T08:10:34.181Z,324
2016-10-19T08:11:34.935Z,308
2016-10-19T08:12:34.724Z,244
2016-10-19T08:13:49.344Z,180
2016-10-19T08:14:34.471Z,164
2016-10-19T08:15:34.465Z,160
2016-10-19T08:16:34.433Z,160
2016-10-19T08:17:34.129Z,136
2016-10-19T08:18:34.813Z,136
2016-10-19T08:19:34.815Z,124
2016-10-19T08:20:34.145Z,124
2016-10-19T08:21:34.467Z,132
2016-10-19T08:22:34.991Z,140
2016-10-19T08:23:34.809Z,156
2016-10-19T08:24:34.178Z,184
2016-10-19T08:25:34.497Z,196
2016-10-19T08:26:34.563Z,208
2016-10-19T08:27:34.973Z,216
2016-10-19T08:28:34.517Z,228
2016-10-19T08:29:34.325Z,260
2016-10-19T08:30:34.527Z,308
2016-10-19T08:31:35.952Z,368
2016-10-19T08:32:34.593Z,400
2016-10-19T08:33:34.790Z,532
2016-10-19T08:34:34.656Z,564
2016-10-19T08:35:36.033Z,416
2016-10-19T08:36:34.351Z,340
2016-10-19T08:37:33.953Z,308
2016-10-19T08:38:34.904Z,296
2016-10-19T08:39:34.707Z,272
2016-10-19T08:40:33.975Z,308
2016-10-19T08:41:34.607Z,324
2016-10-19T08:42:35.561Z,352
2016-10-19T08:43:34.935Z,360
2016-10-19T08:44:34.447Z,328
2016-10-19T08:45:34.321Z,352
2016-10-19T08:46:35.657Z,312
2016-10-19T08:47:34.023Z,300
2016-10-19T08:48:34.970Z,304
2016-10-19T08:49:34.396Z,368
2016-10-19T08:50:34.360Z,360
2016-10-19T08:51:34.986Z,492
2016-10-19T08:52:34.113Z,540
2016-10-19T08:53:34.981Z,448
2016-10-19T08:54:35.010Z,340
2016-10-19T08:55:34.704Z,272
2016-10-19T08:56:34.763Z,288
2016-10-19T08:57:35.861Z,348
2016-10-19T08:58:34.726Z,332
2016-10-19T08:59:34.729Z,352
2016-10-19T09:00:34.789Z,412
2016-10-19T09:01:34.751Z,388
2016-10-19T09:02:34.449Z,420
2016-10-19T09:03:34.498Z,368
2016-10-19T09:04:34.768Z,392
2016-10-19T09:05:35.138Z,448
2016-10-19T09:06:35.094Z,408
2016-10-19T09:07:35.113Z,348
2016-10-19T09:08:35.562Z,300
2016-10-19T09:09:34.489Z,284
2016-10-19T09:10:35.124Z,316
2016-10-19T09:11:34.500Z,364
2016-10-19T09:12:34.925Z,384
2016-10-19T09:13:49.709Z,496
2016-10-19T09:14:34.524Z,552
2016-10-19T09:15:34.849Z,488
2016-10-19T09:16:34.540Z,372
2016-10-19T09:17:34.544Z,400
2016-10-19T09:18:34.609Z,420
2016-10-19T09:19:35.621Z,376
2016-10-19T09:20:35.288Z,408
2016-10-19T09:21:34.631Z,400
2016-10-19T09:22:34.630Z,444
2016-10-19T09:23:35.348Z,468
2016-10-19T09:24:34.321Z,528
2016-10-19T09:25:34.654Z,680
2016-10-19T09:26:34.926Z,748
2016-10-19T09:27:34.637Z,668
2016-10-19T09:28:34.945Z,460
2016-10-19T09:29:35.080Z,416
2016-10-19T09:30:35.140Z,380
2016-10-19T09:31:34.735Z,400
2016-10-19T09:32:35.054Z,364
2016-10-19T09:33:34.977Z,372
2016-10-19T09:34:35.342Z,400
2016-10-19T09:35:35.304Z,392
2016-10-19T09:36:34.739Z,400
2016-10-19T09:37:34.742Z,312
2016-10-19T09:38:34.744Z,336
2016-10-19T09:39:36.217Z,356
2016-10-19T09:40:35.122Z,372
2016-10-19T09:41:35.570Z,456
2016-10-19T09:42:35.380Z,516
2016-10-19T09:43:42.370Z,512
2016-10-19T09:44:35.053Z,560
2016-10-19T09:45:35.064Z,540
2016-10-19T09:46:34.810Z,516
2016-10-19T09:47:35.012Z,512
2016-10-19T09:48:35.088Z,396
2016-10-19T09:49:34.777Z,432
2016-10-19T09:50:35.100Z,412
2016-10-19T09:51:35.111Z,464
2016-10-19T09:52:35.100Z,536
2016-10-19T09:53:34.856Z,592
2016-10-19T09:54:36.674Z,532
2016-10-19T09:55:35.129Z,568
2016-10-19T09:56:35.508Z,468
2016-10-19T09:57:35.237Z,424
2016-10-19T09:58:34.851Z,424
2016-10-19T09:59:34.683Z,512
2016-10-19T10:00:34.690Z,612
2016-10-19T10:01:35.492Z,748
2016-10-19T10:02:34.869Z,744
2016-10-19T10:03:35.451Z,612
2016-10-19T10:04:34.892Z,536
2016-10-19T10:05:36.828Z,772
2016-10-19T10:06:34.901Z,708
2016-10-19T10:07:34.956Z,552
2016-10-19T10:08:35.233Z,500
2016-10-19T10:09:35.317Z,476
2016-10-19T10:10:35.556Z,388
2016-10-19T10:11:35.288Z,380
2016-10-19T10:12:35.573Z,328
2016-10-19T10:13:35.314Z,324
2016-10-19T10:14:35.324Z,320
2016-10-19T10:15:35.332Z,380
2016-10-19T10:16:36.615Z,372
2016-10-19T10:17:35.609Z,348
2016-10-19T10:18:35.493Z,388
2016-10-19T10:19:35.025Z,380
2016-10-19T10:20:35.666Z,376
2016-10-19T10:21:35.264Z,372
2016-10-19T10:22:35.382Z,316
2016-10-19T10:23:35.341Z,204
2016-10-19T10:24:35.033Z,248
2016-10-19T10:25:35.353Z,224
2016-10-19T10:26:35.047Z,220
2016-10-19T10:27:36.672Z,200
2016-10-19T10:28:35.067Z,176
2016-10-19T10:29:35.473Z,184
2016-10-19T10:30:34.763Z,212
2016-10-19T10:31:35.744Z,248
2016-10-19T10:32:34.830Z,316
2016-10-19T10:33:35.101Z,336
2016-10-19T10:34:35.111Z,416
2016-10-19T10:35:35.856Z,404
2016-10-19T10:36:35.435Z,436
2016-10-19T10:37:34.820Z,460
2016-10-19T10:38:36.789Z,312
2016-10-19T10:39:35.461Z,288
2016-10-19T10:40:35.666Z,280
2016-10-19T10:41:35.788Z,276
2016-10-19T10:42:35.535Z,284
2016-10-19T10:43:35.496Z,208
2016-10-19T10:44:35.187Z,248
2016-10-19T10:45:35.522Z,308
2016-10-19T10:46:35.515Z,520
2016-10-19T10:47:35.833Z,408
2016-10-19T10:48:34.913Z,404
2016-10-19T10:49:36.798Z,348
2016-10-19T10:50:35.268Z,312
2016-10-19T10:51:35.600Z,424
2016-10-19T10:52:34.934Z,560
2016-10-19T10:53:34.987Z,504
2016-10-19T10:54:35.309Z,468
2016-10-19T10:55:35.318Z,404
2016-10-19T10:56:35.272Z,412
2016-10-19T10:57:35.644Z,496
2016-10-19T10:58:35.223Z,492
2016-10-19T10:59:35.608Z,540
2016-10-19T11:00:36.576Z,456
2016-10-19T11:01:35.628Z,312
2016-10-19T11:02:35.746Z,368
2016-10-19T11:03:35.328Z,416
2016-10-19T11:04:37.058Z,468
2016-10-19T11:05:35.394Z,596
2016-10-19T11:06:35.348Z,692
2016-10-19T11:07:35.359Z,712
2016-10-19T11:08:35.996Z,664
2016-10-19T11:09:36.058Z,660
2016-10-19T11:10:35.385Z,420
2016-10-19T11:11:36.274Z,428
2016-10-19T11:12:35.403Z,800
2016-10-19T11:13:35.456Z,856
2016-10-19T11:14:35.759Z,696
2016-10-19T11:15:36.315Z,1076
2016-10-19T11:16:35.427Z,1408
2016-10-19T11:17:35.432Z,1224
2016-10-19T11:18:36.066Z,1312
2016-10-19T11:19:35.497Z,1144
2016-10-19T11:20:36.135Z,1276
2016-10-19T11:21:35.463Z,1244
2016-10-19T11:22:36.025Z,1180
2016-10-19T11:23:36.108Z,1216
2016-10-19T11:24:35.604Z,1224
2016-10-19T11:25:35.861Z,1476
2016-10-19T11:26:36.873Z,1576
2016-10-19T11:27:35.829Z,1364
2016-10-19T11:28:35.932Z,860
2016-10-19T11:29:35.528Z,736
2016-10-19T11:30:36.120Z,456
2016-10-19T11:31:35.538Z,596
2016-10-19T11:32:35.913Z,744
2016-10-19T11:33:35.929Z,632
2016-10-19T11:34:35.912Z,952
2016-10-19T11:35:35.574Z,1084
2016-10-19T11:36:35.584Z,852
2016-10-19T11:37:36.660Z,740
2016-10-19T11:38:36.313Z,736
2016-10-19T11:39:36.017Z,804
2016-10-19T11:40:35.929Z,668
2016-10-19T11:41:35.936Z,632
2016-10-19T11:42:35.629Z,656
2016-10-19T11:43:36.054Z,588
2016-10-19T11:44:36.004Z,664
2016-10-19T11:45:35.653Z,1172
2016-10-19T11:46:36.343Z,1608
2016-10-19T11:47:35.718Z,1432
2016-10-19T11:48:37.090Z,1396
2016-10-19T11:49:36.614Z,1520
2016-10-19T11:50:36.010Z,1348
2016-10-19T11:51:36.087Z,1424
2016-10-19T11:52:36.637Z,1216
2016-10-19T11:53:35.768Z,1100
2016-10-19T11:54:36.357Z,800
2016-10-19T11:55:35.419Z,796
2016-10-19T11:56:35.743Z,556
2016-10-19T11:57:35.747Z,476
2016-10-19T11:58:35.765Z,508
2016-10-19T11:59:36.928Z,572
2016-10-19T12:00:35.505Z,624
2016-10-19T12:01:36.092Z,596
2016-10-19T12:02:36.408Z,500
2016-10-19T12:03:36.106Z,432
2016-10-19T12:04:35.906Z,280
2016-10-19T12:05:36.486Z,204
2016-10-19T12:06:36.133Z,188
2016-10-19T12:07:36.150Z,148
2016-10-19T12:08:35.838Z,140
2016-10-19T12:09:35.531Z,116
2016-10-19T12:10:37.044Z,116
2016-10-19T12:11:36.502Z,124
2016-10-19T12:12:35.912Z,148
2016-10-19T12:13:35.869Z,216
2016-10-19T12:14:36.178Z,352
2016-10-19T12:15:36.197Z,448
2016-10-19T12:16:36.206Z,576
2016-10-19T12:17:35.907Z,676
2016-10-19T12:18:35.913Z,752
2016-10-19T12:19:35.916Z,780
2016-10-19T12:20:36.631Z,940
2016-10-19T12:21:37.315Z,956
2016-10-19T12:22:36.344Z,728
2016-10-19T12:23:37.758Z,300
2016-10-19T12:24:36.009Z,240
2016-10-19T12:25:36.275Z,212
2016-10-19T12:26:36.388Z,252
2016-10-19T12:27:36.609Z,220
2016-10-19T12:28:35.723Z,256
2016-10-19T12:29:36.307Z,248
2016-10-19T12:30:36.083Z,300
2016-10-19T12:31:36.008Z,340
2016-10-19T12:32:36.013Z,352
2016-10-19T12:33:36.748Z,480
2016-10-19T12:34:36.504Z,620
2016-10-19T12:35:36.418Z,628
2016-10-19T12:36:36.050Z,416
2016-10-19T12:37:36.172Z,432
2016-10-19T12:38:36.122Z,416
2016-10-19T12:39:36.178Z,340
2016-10-19T12:40:36.083Z,392
2016-10-19T12:41:36.696Z,572
2016-10-19T12:42:36.478Z,512
2016-10-19T12:43:36.219Z,480
2016-10-19T12:44:36.478Z,400
2016-10-19T12:45:36.504Z,416
2016-10-19T12:46:36.176Z,328
2016-10-19T12:47:36.146Z,324
2016-10-19T12:48:35.918Z,316
2016-10-19T12:49:36.860Z,288
2016-10-19T12:50:37.919Z,288
2016-10-19T12:51:36.610Z,296
2016-10-19T12:52:36.837Z,280
2016-10-19T12:53:36.554Z,252
2016-10-19T12:54:36.190Z,252
2016-10-19T12:55:36.990Z,244
2016-10-19T12:56:36.211Z,224
2016-10-19T12:57:36.651Z,240
2016-10-19T12:58:36.543Z,256
2016-10-19T12:59:37.406Z,280
2016-10-19T13:00:36.778Z,316
2016-10-19T13:01:36.300Z,344
2016-10-19T13:02:36.778Z,452
2016-10-19T13:03:36.575Z,376
2016-10-19T13:04:36.425Z,364
2016-10-19T13:05:36.946Z,416
2016-10-19T13:06:38.422Z,440
2016-10-19T13:07:36.606Z,420
2016-10-19T13:08:38.616Z,408
2016-10-19T13:09:36.409Z,380
2016-10-19T13:10:36.679Z,424
2016-10-19T13:11:36.497Z,412
2016-10-19T13:12:36.656Z,476
2016-10-19T13:13:36.738Z,468
2016-10-19T13:14:36.789Z,476
2016-10-19T13:15:36.141Z,476
2016-10-19T13:16:36.060Z,488
2016-10-19T13:17:36.758Z,508
2016-10-19T13:18:36.428Z,468
2016-10-19T13:19:37.116Z,476
2016-10-19T13:20:36.737Z,464
2016-10-19T13:21:36.456Z,512
2016-10-19T13:22:38.668Z,552
2016-10-19T13:23:36.855Z,512
2016-10-19T13:24:38.710Z,584
2016-10-19T13:25:36.822Z,532
2016-10-19T13:26:36.132Z,500
2016-10-19T13:27:36.660Z,600
2016-10-19T13:28:36.155Z,484
2016-10-19T13:29:37.434Z,472
2016-10-19T13:30:36.524Z,476
2016-10-19T13:31:38.092Z,404
2016-10-19T13:32:36.867Z,592
2016-10-19T13:33:37.011Z,548
2016-10-19T13:34:36.927Z,648
2016-10-19T13:35:36.843Z,712
2016-10-19T13:36:36.984Z,720
2016-10-19T13:37:36.530Z,716
2016-10-19T13:38:39.499Z,568
2016-10-19T13:39:36.724Z,532
2016-10-19T13:40:37.309Z,508
2016-10-19T13:41:36.613Z,520
2016-10-19T13:42:36.624Z,376
2016-10-19T13:43:36.455Z,352
2016-10-19T13:44:36.638Z,284
2016-10-19T13:45:37.057Z,340
2016-10-19T13:46:37.083Z,344
2016-10-19T13:47:36.991Z,404
2016-10-19T13:48:37.094Z,424
2016-10-19T13:49:37.034Z,460
2016-10-19T13:50:37.331Z,424
2016-10-19T13:51:37.091Z,376
2016-10-19T13:52:37.317Z,356
2016-10-19T13:53:36.746Z,360
2016-10-19T13:54:38.125Z,356
2016-10-19T13:55:37.397Z,340
2016-10-19T13:56:37.063Z,336
2016-10-19T13:57:36.836Z,372
2016-10-19T13:58:37.525Z,356
2016-10-19T13:59:37.168Z,264
2016-10-19T14:00:37.468Z,236
2016-10-19T14:01:39.027Z,220
2016-10-19T14:02:37.186Z,196
2016-10-19T14:03:36.872Z,212
2016-10-19T14:04:37.248Z,228
2016-10-19T14:05:36.798Z,204
2016-10-19T14:06:38.177Z,208
2016-10-19T14:07:36.887Z,200
2016-10-19T14:08:36.625Z,200
2016-10-19T14:09:37.145Z,192
2016-10-19T14:10:36.878Z,188
2016-10-19T14:11:36.615Z,184
2016-10-19T14:12:37.116Z,192
2016-10-19T14:13:37.382Z,204